createdAt,value
2022-12-01T00:02:02.438Z,100032.41
2022-12-01T00:05:05.002Z,100050.72
2022-12-01T00:08:07.166Z,100043.63
2022-12-01T00:11:12.030Z,100035.38
2022-12-01T00:14:14.580Z,100031.81
2022-12-01T00:17:16.598Z,100032.72
2022-12-01T00:20:18.953Z,100029.44
2022-12-01T00:23:20.973Z,100027.19
2022-12-01T00:26:23.404Z,100031.28
2022-12-01T00:29:25.552Z,100025.84
2022-12-01T00:32:30.162Z,100013.97
2022-12-01T00:35:32.190Z,100019.31
2022-12-01T00:38:34.433Z,100005.84
2022-12-01T00:41:36.528Z,100011.25
2022-12-01T00:44:38.551Z,100023.53
2022-12-01T00:47:40.592Z,100026.66
2022-12-01T00:50:44.664Z,100035.75
2022-12-01T00:53:46.697Z,100029.31
2022-12-01T00:56:48.755Z,100035.38
2022-12-01T00:59:50.996Z,100031.91
2022-12-01T01:02:53.201Z,100027.84
2022-12-01T01:05:55.308Z,100019.66
2022-12-01T01:08:57.477Z,100016.22
2022-12-01T01:11:59.542Z,100017.22
2022-12-01T01:15:01.648Z,100017.91
2022-12-01T01:18:04.172Z,100028.59
2022-12-01T01:21:08.692Z,100041.75
2022-12-01T01:24:12.889Z,100031.13
2022-12-01T01:27:14.932Z,100031.31
2022-12-01T01:30:17.415Z,100028.75
2022-12-01T01:33:19.447Z,100030.38
2022-12-01T01:36:21.475Z,100033.03
2022-12-01T01:39:23.487Z,100030.53
2022-12-01T01:42:25.529Z,100034.69
2022-12-01T01:45:29.804Z,100036.03
2022-12-01T01:48:34.613Z,100031.19
2022-12-01T01:51:46.866Z,100028.22
2022-12-01T01:54:50.640Z,100024.59
2022-12-01T01:57:52.701Z,100016.69
2022-12-01T02:00:54.787Z,100004.88
2022-12-01T02:03:56.878Z,100015.03
2022-12-01T02:06:58.949Z,100013.03
2022-12-01T02:10:01.002Z,100024.00
2022-12-01T02:13:28.408Z,100026.75
2022-12-01T02:16:38.569Z,100024.16
2022-12-01T02:19:58.678Z,100032.56
2022-12-01T02:23:36.522Z,100035.69
2022-12-01T02:27:26.019Z,100033.44
2022-12-01T02:30:40.948Z,100035.69
2022-12-01T02:33:53.402Z,100038.63
2022-12-01T02:37:08.793Z,100059.47
2022-12-01T02:40:34.069Z,100062.72
2022-12-01T02:43:57.578Z,100061.81
2022-12-01T02:47:20.366Z,100066.69
2022-12-01T02:50:23.222Z,100066.75
2022-12-01T02:53:25.272Z,100065.03
2022-12-01T02:56:27.337Z,100050.44
2022-12-01T02:59:29.394Z,100053.75
2022-12-01T03:02:53.171Z,100059.44
2022-12-01T03:06:23.725Z,100064.16
2022-12-01T03:10:10.396Z,100066.72
2022-12-01T03:13:44.674Z,100046.25
2022-12-01T03:16:52.261Z,100039.91
2022-12-01T03:19:58.640Z,100037.59
2022-12-01T03:23:07.867Z,100033.38
2022-12-01T03:26:11.877Z,100030.06
2022-12-01T03:29:20.520Z,100024.75
2022-12-01T03:32:33.978Z,100017.22
2022-12-01T03:36:07.281Z,100043.97
2022-12-01T03:39:13.167Z,100042.97
2022-12-01T03:42:27.367Z,100047.91
2022-12-01T03:45:54.796Z,100044.25
2022-12-01T03:48:56.864Z,100049.53
2022-12-01T03:51:58.992Z,100041.38
2022-12-01T03:55:15.560Z,100033.59
2022-12-01T03:58:26.042Z,100026.41
2022-12-01T04:01:32.843Z,100029.47
2022-12-01T04:04:35.103Z,100023.69
2022-12-01T04:07:38.379Z,100024.31
2022-12-01T04:10:40.630Z,100028.69
2022-12-01T04:13:42.665Z,100031.84
2022-12-01T04:16:44.750Z,100027.06
2022-12-01T04:19:46.965Z,100023.19
2022-12-01T04:22:49.278Z,100022.03
2022-12-01T04:26:00.209Z,100033.22
2022-12-01T04:29:04.466Z,100027.78
2022-12-01T04:32:06.570Z,100027.47
2022-12-01T04:35:10.053Z,100023.03
2022-12-01T04:38:12.166Z,100024.06
2022-12-01T04:41:14.494Z,100027.91
2022-12-01T04:44:16.607Z,100035.97
2022-12-01T04:47:18.630Z,100033.03
2022-12-01T04:50:20.681Z,100046.19
2022-12-01T04:53:22.726Z,100034.22
2022-12-01T04:56:24.862Z,100041.25
2022-12-01T04:59:26.899Z,100035.81
2022-12-01T05:02:28.972Z,100033.22
2022-12-01T05:05:31.104Z,100031.56
2022-12-01T05:08:34.253Z,100022.06
2022-12-01T05:11:36.326Z,100023.88
2022-12-01T05:14:38.349Z,100021.88
2022-12-01T05:17:40.491Z,100031.53
2022-12-01T05:20:57.469Z,100031.19
2022-12-01T05:23:59.518Z,100035.25
2022-12-01T05:27:01.536Z,100041.06
2022-12-01T05:30:03.938Z,100036.28
2022-12-01T05:33:06.476Z,100034.00
2022-12-01T05:36:09.026Z,100031.34
2022-12-01T05:39:11.061Z,100027.69
2022-12-01T05:42:13.116Z,100033.03
2022-12-01T05:45:15.194Z,100036.03
2022-12-01T05:48:17.973Z,100037.63
2022-12-01T05:51:20.106Z,100038.41
2022-12-01T05:54:22.221Z,100041.06
2022-12-01T05:57:24.248Z,100045.38
2022-12-01T06:00:26.343Z,100048.00
2022-12-01T06:03:28.414Z,100037.44
2022-12-01T06:06:30.443Z,100041.34
2022-12-01T06:09:32.502Z,100033.28
2022-12-01T06:12:34.545Z,100032.66
2022-12-01T06:15:36.561Z,100029.78
2022-12-01T06:18:38.954Z,100034.25
2022-12-01T06:21:41.046Z,100037.13
2022-12-01T06:24:43.099Z,100041.03
2022-12-01T06:27:45.167Z,100043.34
2022-12-01T06:30:47.244Z,100037.91
2022-12-01T06:33:49.273Z,100035.09
2022-12-01T06:36:51.315Z,100048.66
2022-12-01T06:39:53.388Z,100053.50
2022-12-01T06:42:55.429Z,100055.50
2022-12-01T06:46:01.739Z,100063.56
2022-12-01T06:49:04.664Z,100062.06
2022-12-01T06:52:06.775Z,100062.53
2022-12-01T06:55:09.276Z,100054.31
2022-12-01T06:58:11.487Z,100052.34
2022-12-01T07:01:13.680Z,100054.59
2022-12-01T07:04:15.745Z,100068.13
2022-12-01T07:07:17.849Z,100070.13
2022-12-01T07:10:19.977Z,100080.78
2022-12-01T07:13:21.992Z,100074.88
2022-12-01T07:16:24.156Z,100082.63
2022-12-01T07:19:26.244Z,100085.38
2022-12-01T07:22:32.916Z,100090.31
2022-12-01T07:25:35.127Z,100092.31
2022-12-01T07:28:37.249Z,100096.22
2022-12-01T07:31:39.452Z,100094.06
2022-12-01T07:34:41.555Z,100096.53
2022-12-01T07:37:43.599Z,100106.59
2022-12-01T07:40:45.641Z,100099.41
2022-12-01T07:43:48.275Z,100108.72
2022-12-01T07:46:50.390Z,100108.44
2022-12-01T07:49:52.431Z,100111.72
2022-12-01T07:52:54.482Z,100113.00
2022-12-01T07:55:56.516Z,100113.34
2022-12-01T07:58:58.580Z,100110.25
2022-12-01T08:02:00.711Z,100116.94
2022-12-01T08:05:02.813Z,100124.69
2022-12-01T08:08:05.190Z,100124.00
2022-12-01T08:11:21.912Z,100129.59
2022-12-01T08:14:23.981Z,100129.38
2022-12-01T08:17:26.013Z,100123.63
2022-12-01T08:20:28.161Z,100127.94
2022-12-01T08:23:30.225Z,100123.31
2022-12-01T08:26:32.284Z,100132.34
2022-12-01T08:29:35.762Z,100125.91
2022-12-01T08:32:37.809Z,100132.31
2022-12-01T08:35:39.941Z,100125.09
2022-12-01T08:38:46.061Z,100125.91
2022-12-01T08:41:48.131Z,100131.97
2022-12-01T08:44:50.298Z,100121.59
2022-12-01T08:47:54.511Z,100127.09
2022-12-01T08:51:14.463Z,100130.88
2022-12-01T08:54:16.482Z,100123.63
2022-12-01T08:57:18.529Z,100127.75
2022-12-01T09:00:20.649Z,100120.41
2022-12-01T09:03:22.706Z,100113.97
2022-12-01T09:06:24.770Z,100111.03
2022-12-01T09:09:28.490Z,100107.97
2022-12-01T09:12:30.556Z,100114.50
2022-12-01T09:15:32.574Z,100108.91
2022-12-01T09:18:35.139Z,100104.88
2022-12-01T09:21:37.599Z,100107.38
2022-12-01T09:24:39.645Z,100109.47
2022-12-01T09:27:41.887Z,100107.72
2022-12-01T09:30:45.269Z,100105.50
2022-12-01T09:33:47.365Z,100110.81
2022-12-01T09:36:49.727Z,100107.09
2022-12-01T09:39:52.015Z,100101.47
2022-12-01T09:42:54.145Z,100107.91
2022-12-01T09:46:02.365Z,100112.00
2022-12-01T09:49:04.638Z,100110.22
2022-12-01T09:52:12.860Z,100125.16
2022-12-01T09:55:17.809Z,100123.53
2022-12-01T09:58:25.000Z,100125.31
2022-12-01T10:01:38.817Z,100123.97
2022-12-01T10:04:44.660Z,100126.50
2022-12-01T10:07:49.848Z,100119.56
2022-12-01T10:10:53.245Z,100125.00
2022-12-01T10:13:55.256Z,100126.31
2022-12-01T10:17:33.895Z,100125.50
2022-12-01T10:20:49.144Z,100126.63
2022-12-01T10:24:18.914Z,100133.38
2022-12-01T10:27:43.540Z,100132.56
2022-12-01T10:30:53.274Z,100133.72
2022-12-01T10:34:36.657Z,100129.59
2022-12-01T10:37:40.024Z,100135.97
2022-12-01T10:40:42.571Z,100132.53
2022-12-01T10:43:47.808Z,100132.88
2022-12-01T10:46:54.221Z,100131.72
2022-12-01T10:49:56.401Z,100134.53
2022-12-01T10:52:58.601Z,100134.50
2022-12-01T10:56:19.153Z,100133.38
2022-12-01T10:59:37.964Z,100136.47
2022-12-01T11:02:40.063Z,100140.94
2022-12-01T11:05:42.249Z,100144.03
2022-12-01T11:08:59.833Z,100142.59
2022-12-01T11:12:03.368Z,100129.25
2022-12-01T11:15:05.979Z,100135.00
2022-12-01T11:18:28.173Z,100130.16
2022-12-01T11:21:30.191Z,100126.72
2022-12-01T11:24:55.643Z,100121.94
2022-12-01T11:28:01.861Z,100112.75
2022-12-01T11:31:09.312Z,100119.00
2022-12-01T11:34:34.278Z,100117.13
2022-12-01T11:37:54.811Z,100110.63
2022-12-01T11:41:02.397Z,100115.13
2022-12-01T11:44:12.686Z,100107.09
2022-12-01T11:47:26.845Z,100110.28
2022-12-01T11:50:39.921Z,100102.75
2022-12-01T11:53:42.896Z,100099.97
2022-12-01T11:56:46.663Z,100098.09
2022-12-01T11:59:49.181Z,100102.94
2022-12-01T12:03:12.939Z,100099.47
2022-12-01T12:06:46.022Z,100085.47
2022-12-01T12:10:10.744Z,100096.16
2022-12-01T12:13:15.884Z,100097.19
2022-12-01T12:17:08.045Z,100088.88
2022-12-01T12:20:25.053Z,100088.06
2022-12-01T12:23:46.204Z,100090.97
2022-12-01T12:27:25.425Z,100076.41
2022-12-01T12:30:29.988Z,100085.47
2022-12-01T12:34:01.078Z,100070.97
2022-12-01T12:37:26.340Z,100087.59
2022-12-01T12:41:23.144Z,100080.25
2022-12-01T12:44:49.998Z,100080.03
2022-12-01T12:48:45.681Z,100078.28
2022-12-01T12:52:24.229Z,100074.38
2022-12-01T12:55:37.202Z,100065.19
2022-12-01T12:59:03.634Z,100076.09
2022-12-01T13:02:31.858Z,100075.19
2022-12-01T13:05:54.546Z,100077.94
2022-12-01T13:09:21.008Z,100073.91
2022-12-01T13:12:30.173Z,100061.78
2022-12-01T13:15:32.250Z,100069.97
2022-12-01T13:18:47.857Z,100072.59
2022-12-01T13:21:51.009Z,100075.41
2022-12-01T13:24:53.138Z,100072.75
2022-12-01T13:27:55.570Z,100069.91
2022-12-01T13:31:13.218Z,100072.69
2022-12-01T13:34:38.033Z,100067.97
2022-12-01T13:37:40.212Z,100073.38
2022-12-01T13:40:42.247Z,100060.44
2022-12-01T13:44:06.814Z,100066.84
2022-12-01T13:47:11.677Z,100056.88
2022-12-01T13:50:46.021Z,100063.91
2022-12-01T13:54:28.440Z,100058.41
2022-12-01T13:57:32.792Z,100056.06
2022-12-01T14:00:37.823Z,100058.31
2022-12-01T14:03:40.784Z,100048.75
2022-12-01T14:06:51.387Z,100055.69
2022-12-01T14:09:58.850Z,100057.22
2022-12-01T14:13:04.211Z,100058.03
2022-12-01T14:16:06.547Z,100059.88
2022-12-01T14:19:39.450Z,100058.50
2022-12-01T14:22:46.700Z,100061.72
2022-12-01T14:26:19.588Z,100058.38
2022-12-01T14:29:43.178Z,100062.25
2022-12-01T14:32:45.217Z,100061.44
2022-12-01T14:35:47.247Z,100054.59
2022-12-01T14:38:58.280Z,100057.16
2022-12-01T14:42:04.201Z,100053.13
2022-12-01T14:45:08.200Z,100045.53
2022-12-01T14:48:14.393Z,100048.97
2022-12-01T14:51:34.209Z,100047.38
2022-12-01T14:54:47.093Z,100041.84
2022-12-01T14:58:05.928Z,100039.91
2022-12-01T15:01:12.712Z,100039.72
2022-12-01T15:04:15.493Z,100035.88
2022-12-01T15:07:22.803Z,100045.03
2022-12-01T15:10:34.657Z,100039.31
2022-12-01T15:13:51.396Z,100031.56
2022-12-01T15:16:53.495Z,100038.59
2022-12-01T15:19:55.618Z,100029.88
2022-12-01T15:22:58.545Z,100025.91
2022-12-01T15:26:01.250Z,100040.47
2022-12-01T15:29:19.324Z,100038.66
2022-12-01T15:32:22.564Z,100033.03
2022-12-01T15:35:24.614Z,100031.09
2022-12-01T15:38:35.948Z,100034.59
2022-12-01T15:41:38.053Z,100036.78
2022-12-01T15:44:40.924Z,100044.50
2022-12-01T15:47:45.809Z,100032.91
2022-12-01T15:50:58.945Z,100040.56
2022-12-01T15:54:01.337Z,100047.44
2022-12-01T15:57:03.633Z,100049.81
2022-12-01T16:00:06.815Z,100046.72
2022-12-01T16:03:14.333Z,100050.56
2022-12-01T16:06:16.480Z,100060.41
2022-12-01T16:09:40.425Z,100058.03
2022-12-01T16:12:42.497Z,100060.09
2022-12-01T16:15:44.617Z,100060.34
2022-12-01T16:18:57.655Z,100049.78
2022-12-01T16:22:18.893Z,100054.47
2022-12-01T16:25:38.182Z,100057.38
2022-12-01T16:28:40.251Z,100064.19
2022-12-01T16:31:58.538Z,100063.50
2022-12-01T16:35:06.401Z,100054.91
2022-12-01T16:38:25.547Z,100060.81
2022-12-01T16:41:38.458Z,100064.38
2022-12-01T16:44:41.852Z,100067.44
2022-12-01T16:47:45.847Z,100059.53
2022-12-01T16:50:48.845Z,100061.97
2022-12-01T16:53:51.252Z,100053.13
2022-12-01T16:56:53.421Z,100055.75
2022-12-01T16:59:55.545Z,100047.38
2022-12-01T17:02:57.895Z,100047.13
2022-12-01T17:06:01.694Z,100043.72
2022-12-01T17:09:04.048Z,100047.13
2022-12-01T17:12:06.436Z,100054.22
2022-12-01T17:15:09.069Z,100051.66
2022-12-01T17:18:11.266Z,100058.16
2022-12-01T17:21:13.497Z,100058.13
2022-12-01T17:24:18.978Z,100056.31
2022-12-01T17:27:23.046Z,100058.22
2022-12-01T17:30:25.135Z,100049.84
2022-12-01T17:33:27.228Z,100052.41
2022-12-01T17:36:29.268Z,100048.59
2022-12-01T17:39:31.318Z,100052.19
2022-12-01T17:42:33.941Z,100050.56
2022-12-01T17:45:36.022Z,100052.78
2022-12-01T17:48:45.550Z,100047.63
2022-12-01T17:51:47.666Z,100051.59
2022-12-01T17:54:49.892Z,100050.88
2022-12-01T17:57:52.072Z,100055.84
2022-12-01T18:00:54.214Z,100056.78
2022-12-01T18:03:57.491Z,100064.56
2022-12-01T18:07:00.581Z,100051.56
2022-12-01T18:10:02.644Z,100060.81
2022-12-01T18:13:04.746Z,100050.56
2022-12-01T18:16:09.059Z,100048.53
2022-12-01T18:19:11.212Z,100052.94
2022-12-01T18:22:13.271Z,100056.34
2022-12-01T18:25:15.573Z,100054.78
2022-12-01T18:28:17.602Z,100047.50
2022-12-01T18:31:19.699Z,100043.69
2022-12-01T18:34:21.857Z,100047.63
2022-12-01T18:37:23.907Z,100042.78
2022-12-01T18:40:25.935Z,100043.25
2022-12-01T18:43:29.700Z,100046.22
2022-12-01T18:46:31.767Z,100047.88
2022-12-01T18:49:33.862Z,100038.94
2022-12-01T18:52:37.463Z,100043.78
2022-12-01T18:55:39.573Z,100043.34
2022-12-01T18:58:41.692Z,100051.16
2022-12-01T19:01:44.490Z,100046.34
2022-12-01T19:04:50.035Z,100047.50
2022-12-01T19:07:56.058Z,100046.13
2022-12-01T19:11:01.064Z,100035.22
2022-12-01T19:14:03.641Z,100047.97
2022-12-01T19:17:05.765Z,100041.97
2022-12-01T19:20:08.868Z,100047.16
2022-12-01T19:23:10.927Z,100045.22
2022-12-01T19:26:18.509Z,100046.69
2022-12-01T19:29:20.558Z,100049.44
2022-12-01T19:32:22.926Z,100061.50
2022-12-01T19:35:24.993Z,100058.16
2022-12-01T19:38:27.745Z,100055.03
2022-12-01T19:41:29.994Z,100053.00
2022-12-01T19:44:32.195Z,100061.16
2022-12-01T19:47:34.804Z,100055.88
2022-12-01T19:50:37.025Z,100053.69
2022-12-01T19:53:39.088Z,100052.41
2022-12-01T19:56:41.233Z,100056.03
2022-12-01T19:59:43.249Z,100048.47
2022-12-01T20:02:45.325Z,100059.03
2022-12-01T20:05:47.448Z,100059.50
2022-12-01T20:08:49.993Z,100054.88
2022-12-01T20:11:53.057Z,100056.97
2022-12-01T20:14:56.088Z,100052.13
2022-12-01T20:17:58.193Z,100053.34
2022-12-01T20:21:10.866Z,100054.97
2022-12-01T20:24:15.094Z,100058.59
2022-12-01T20:27:17.111Z,100051.03
2022-12-01T20:30:19.213Z,100057.97
2022-12-01T20:33:21.375Z,100059.88
2022-12-01T20:36:26.844Z,100064.72
2022-12-01T20:39:31.437Z,100059.03
2022-12-01T20:42:33.540Z,100065.50
2022-12-01T20:45:35.699Z,100066.75
2022-12-01T20:48:37.787Z,100070.91
2022-12-01T20:51:45.455Z,100073.16
2022-12-01T20:54:47.578Z,100070.53
2022-12-01T20:57:49.902Z,100072.88
2022-12-01T21:00:51.963Z,100073.72
2022-12-01T21:03:54.118Z,100074.63
2022-12-01T21:06:57.670Z,100077.44
2022-12-01T21:09:59.696Z,100075.53
2022-12-01T21:13:39.090Z,100071.16
2022-12-01T21:16:41.247Z,100076.56
2022-12-01T21:20:12.934Z,100075.78
2022-12-01T21:23:18.047Z,100080.78
2022-12-01T21:26:20.093Z,100082.72
2022-12-01T21:29:25.056Z,100081.88
2022-12-01T21:32:32.004Z,100075.97
2022-12-01T21:35:34.081Z,100077.69
2022-12-01T21:38:36.135Z,100070.16
2022-12-01T21:41:38.249Z,100073.44
2022-12-01T21:44:40.284Z,100071.78
2022-12-01T21:47:42.321Z,100071.06
2022-12-01T21:50:49.259Z,100080.25
2022-12-01T21:53:56.010Z,100071.63
2022-12-01T21:56:58.361Z,100076.28
2022-12-01T22:00:29.921Z,100078.25
2022-12-01T22:03:34.508Z,100079.53
2022-12-01T22:06:39.432Z,100073.78
2022-12-01T22:09:41.508Z,100065.59
2022-12-01T22:12:43.559Z,100067.69
2022-12-01T22:15:45.676Z,100064.53
2022-12-01T22:18:56.644Z,100055.53
2022-12-01T22:22:27.178Z,100058.44
2022-12-01T22:25:29.903Z,100057.97
2022-12-01T22:28:32.100Z,100065.41
2022-12-01T22:31:34.259Z,100068.06
2022-12-01T22:34:36.359Z,100065.44
2022-12-01T22:37:45.551Z,100067.97
2022-12-01T22:41:11.470Z,100071.63
2022-12-01T22:44:13.508Z,100071.91
2022-12-01T22:47:15.560Z,100063.34
2022-12-01T22:50:31.815Z,100070.34
2022-12-01T22:53:33.958Z,100067.72
2022-12-01T22:56:44.431Z,100070.81
2022-12-01T22:59:47.884Z,100066.38
2022-12-01T23:02:50.828Z,100074.75
2022-12-01T23:05:56.778Z,100071.88
2022-12-01T23:08:58.799Z,100069.63
2022-12-01T23:12:25.013Z,100068.06
2022-12-01T23:15:40.231Z,100068.09
2022-12-01T23:18:42.348Z,100070.13
2022-12-01T23:21:44.432Z,100060.56
2022-12-01T23:24:46.468Z,100065.28
2022-12-01T23:27:50.501Z,100058.94
2022-12-01T23:30:55.589Z,100057.53
2022-12-01T23:33:57.687Z,100052.19
2022-12-01T23:36:59.777Z,100051.88
2022-12-01T23:40:03.363Z,100043.09
2022-12-01T23:43:29.108Z,100038.78
2022-12-01T23:46:31.306Z,100041.75
2022-12-01T23:49:34.458Z,100040.00
2022-12-01T23:52:36.711Z,100041.91
2022-12-01T23:55:38.863Z,100042.44
2022-12-01T23:58:40.962Z,100038.09
